Time;durP1;ratioP1;P1;durP2;ratioP2;P2;SDS_P1;SDS_P2;PMS_P1;PMS_P2;Temp;Humidity;BMP_temperature;BMP_pressure;BME280_temperature;BME280_humidity;BME280_pressure;Samples;Min_cycle;Max_cycle;Signal;HPM_P1;HPM_P2
2023/04/11 00:01:59;;;;;;;15.75;8.90;;;;;;;9.18;100.00;99760.34;5105889;28;20416;-42
2023/04/11 00:04:25;;;;;;;14.88;9.48;;;;;;;9.24;100.00;99753.34;5106062;28;20032;-41
2023/04/11 00:06:50;;;;;;;15.75;10.25;;;;;;;9.21;100.00;99759.09;5105626;28;20040;-41
2023/04/11 00:09:16;;;;;;;16.58;10.38;;;;;;;9.29;100.00;99756.16;5106166;28;20076;-42
2023/04/11 00:11:42;;;;;;;15.57;9.25;;;;;;;9.16;100.00;99751.78;5105434;28;20028;-42
2023/04/11 00:14:08;;;;;;;16.05;9.18;;;;;;;9.08;100.00;99741.41;5106051;28;20466;-44
2023/04/11 00:16:33;;;;;;;14.82;9.60;;;;;;;9.14;100.00;99745.88;5105973;28;20560;-42
2023/04/11 00:18:59;;;;;;;15.63;9.55;;;;;;;9.23;100.00;99747.22;5105687;28;20043;-42
2023/04/11 00:21:25;;;;;;;14.25;8.90;;;;;;;9.31;100.00;99740.00;5105527;28;20024;-42
2023/04/11 00:23:54;;;;;;;16.23;9.30;;;;;;;9.31;100.00;99742.66;5106235;28;20080;-42
2023/04/11 00:26:20;;;;;;;15.80;9.23;;;;;;;9.40;100.00;99741.34;5105965;28;20496;-41
2023/04/11 00:28:46;;;;;;;13.90;8.80;;;;;;;9.20;100.00;99736.22;5105912;28;20036;-42
2023/04/11 00:31:12;;;;;;;14.20;8.45;;;;;;;9.27;100.00;99739.59;5105644;28;20662;-42
2023/04/11 00:33:37;;;;;;;14.10;8.85;;;;;;;9.36;100.00;99740.16;5108300;28;20023;-41
2023/04/11 00:36:03;;;;;;;12.07;7.88;;;;;;;9.39;100.00;99729.06;5109397;28;20092;-42
2023/04/11 00:38:29;;;;;;;13.40;8.23;;;;;;;9.20;100.00;99731.69;5109687;28;20104;-42
2023/04/11 00:40:54;;;;;;;13.52;9.15;;;;;;;9.09;100.00;99713.75;5109566;28;20032;-43
2023/04/11 00:43:20;;;;;;;12.95;8.32;;;;;;;9.20;100.00;99715.72;5109627;28;20027;-41
2023/04/11 00:45:46;;;;;;;13.57;9.00;;;;;;;9.05;100.00;99712.56;5109553;28;20019;-42
2023/04/11 00:48:11;;;;;;;14.90;8.88;;;;;;;8.94;100.00;99706.13;5109312;28;20068;-42
2023/04/11 00:50:41;;;;;;;15.57;9.27;;;;;;;8.93;100.00;99708.97;5109530;28;20027;-44
2023/04/11 00:53:09;;;;;;;13.25;8.43;;;;;;;8.65;100.00;99683.66;5109528;28;20038;-41
2023/04/11 00:55:35;;;;;;;15.15;9.15;;;;;;;8.94;100.00;99713.28;5109367;28;20035;-42
2023/04/11 00:58:01;;;;;;;16.50;10.00;;;;;;;9.04;100.00;99705.63;5108945;28;20182;-42
2023/04/11 01:00:28;;;;;;;15.20;9.10;;;;;;;9.09;100.00;99713.75;5108723;28;20027;-40
2023/04/11 01:02:53;;;;;;;15.50;9.57;;;;;;;9.20;100.00;99698.97;5109367;28;20028;-43
2023/04/11 01:05:19;;;;;;;15.27;9.85;;;;;;;9.16;100.00;99709.22;5103586;28;20031;-42
2023/04/11 01:07:49;;;;;;;16.95;12.45;;;;;;;8.93;100.00;99703.66;5099007;28;20048;-42
2023/04/11 01:10:16;;;;;;;19.52;17.38;;;;;;;8.93;100.00;99714.31;5088544;28;20479;-42
2023/04/11 01:12:44;;;;;;;16.85;10.00;;;;;;;8.98;100.00;99706.50;5088867;28;20060;-42
2023/04/11 01:15:10;;;;;;;18.25;10.35;;;;;;;9.03;100.00;99704.81;5088706;28;20028;-41
2023/04/11 01:17:35;;;;;;;18.40;11.27;;;;;;;9.19;100.00;99714.13;5088476;28;20032;-41
2023/04/11 01:20:01;;;;;;;23.05;17.73;;;;;;;9.09;100.00;99719.09;5088881;28;20648;-41
2023/04/11 01:22:27;;;;;;;23.63;15.38;;;;;;;8.79;100.00;99700.31;5088677;28;20093;-41
2023/04/11 01:24:53;;;;;;;16.08;10.50;;;;;;;8.89;100.00;99687.34;5088156;28;20020;-43
2023/04/11 01:27:18;;;;;;;23.55;18.10;;;;;;;8.76;100.00;99684.78;5086761;28;20414;-41
2023/04/11 01:29:44;;;;;;;23.30;17.90;;;;;;;8.91;100.00;99689.78;5088540;28;20562;-41
2023/04/11 01:32:09;;;;;;;25.05;18.42;;;;;;;8.87;100.00;99693.91;5088161;28;20031;-41
2023/04/11 01:34:38;;;;;;;23.70;15.02;;;;;;;8.76;100.00;99669.63;5088210;28;20036;-41
2023/04/11 01:37:04;;;;;;;26.38;19.15;;;;;;;9.09;100.00;99697.81;5087995;28;20028;-40
2023/04/11 01:39:29;;;;;;;19.60;12.82;;;;;;;9.21;100.00;99700.56;5088176;28;20028;-40
2023/04/11 01:41:56;;;;;;;21.40;13.40;;;;;;;9.04;100.00;99695.00;5088107;28;20031;-41
2023/04/11 01:44:23;;;;;;;23.23;14.13;;;;;;;9.08;100.00;99696.19;5087917;28;20036;-40
2023/04/11 01:46:48;;;;;;;18.15;12.02;;;;;;;9.01;100.00;99682.13;5088061;28;20020;-43
2023/04/11 01:49:14;;;;;;;20.73;12.80;;;;;;;9.08;100.00;99685.56;5087808;28;20020;-41
2023/04/11 01:51:40;;;;;;;20.90;13.20;;;;;;;9.28;100.00;99687.22;5088238;28;20042;-40
2023/04/11 01:54:06;;;;;;;19.85;11.80;;;;;;;9.15;100.00;99688.94;5087901;28;20052;-40
2023/04/11 01:56:31;;;;;;;19.30;11.93;;;;;;;9.13;100.00;99693.66;5087777;28;20103;-41
2023/04/11 01:58:57;;;;;;;20.70;12.90;;;;;;;9.08;100.00;99687.41;5087749;28;20393;-41
2023/04/11 02:01:23;;;;;;;21.10;12.95;;;;;;;9.10;100.00;99675.50;5087694;28;20039;-41
2023/04/11 02:03:49;;;;;;;20.50;12.73;;;;;;;9.01;100.00;99674.13;5087980;28;20024;-41
2023/04/11 02:06:15;;;;;;;20.15;12.48;;;;;;;8.94;100.00;99679.53;5087438;28;20040;-41
2023/04/11 02:08:41;;;;;;;22.38;13.68;;;;;;;8.95;100.00;99669.69;5087181;28;20070;-41
2023/04/11 02:11:07;;;;;;;22.83;12.98;;;;;;;8.82;100.00;99668.78;5087555;28;20058;-42
2023/04/11 02:13:33;;;;;;;22.40;13.77;;;;;;;8.68;100.00;99666.44;5087579;28;20066;-39
2023/04/11 02:16:13;;;;;;;23.40;13.45;;;;;;;8.67;100.00;99641.72;5087211;28;20858;-40
2023/04/11 02:18:40;;;;;;;22.50;13.50;;;;;;;8.69;100.00;99649.47;5087470;28;20107;-41
2023/04/11 02:21:06;;;;;;;24.95;15.20;;;;;;;8.81;100.00;99650.41;5086963;28;20039;-41
2023/04/11 02:23:33;;;;;;;26.50;14.43;;;;;;;8.73;100.00;99651.47;5087288;28;20020;-42
2023/04/11 02:26:00;;;;;;;23.38;14.23;;;;;;;8.55;100.00;99651.41;5087103;28;20036;-40
2023/04/11 02:28:25;;;;;;;24.27;15.10;;;;;;;8.58;100.00;99645.66;5087163;28;20028;-41
2023/04/11 02:30:51;;;;;;;23.02;14.27;;;;;;;8.63;100.00;99653.81;5086985;28;20085;-41
2023/04/11 02:33:18;;;;;;;25.08;14.98;;;;;;;8.53;100.00;99653.47;5086984;28;20028;-41
2023/04/11 02:35:44;;;;;;;23.27;13.85;;;;;;;8.49;100.00;99649.63;5087194;28;20534;-40
2023/04/11 02:38:10;;;;;;;25.63;14.88;;;;;;;8.61;100.00;99659.31;5087130;28;20024;-40
2023/04/11 02:40:35;;;;;;;25.17;14.98;;;;;;;8.81;100.00;99637.09;5087103;28;20038;-41
2023/04/11 02:43:00;;;;;;;25.85;15.00;;;;;;;8.76;100.00;99634.28;5086487;28;20401;-41
2023/04/11 02:45:26;;;;;;;22.27;13.07;;;;;;;8.55;100.00;99622.97;5086600;28;20032;-41
2023/04/11 02:47:51;;;;;;;23.30;14.50;;;;;;;8.63;100.00;99624.56;5086822;28;20575;-41
2023/04/11 02:50:17;;;;;;;25.77;14.32;;;;;;;8.52;100.00;99617.28;5086715;28;20027;-41
2023/04/11 02:52:44;;;;;;;24.55;13.98;;;;;;;8.44;100.00;99616.53;5086400;28;20028;-41
2023/04/11 02:55:09;;;;;;;28.90;15.27;;;;;;;8.40;100.00;99596.69;5086178;28;20020;-40
2023/04/11 02:57:35;;;;;;;24.77;14.88;;;;;;;8.49;100.00;99601.78;5086331;28;20024;-41
2023/04/11 03:00:01;;;;;;;25.15;14.77;;;;;;;8.34;100.00;99600.22;5086493;28;20028;-41
2023/04/11 03:02:28;;;;;;;27.38;15.75;;;;;;;8.47;100.00;99603.84;5086214;28;20147;-40
2023/04/11 03:04:54;;;;;;;25.08;15.05;;;;;;;8.35;100.00;99596.53;5086647;28;20146;-40
2023/04/11 03:07:19;;;;;;;24.13;14.95;;;;;;;8.32;100.00;99606.78;5086420;28;20466;-40
2023/04/11 03:09:45;;;;;;;24.73;15.50;;;;;;;8.33;100.00;99593.25;5087008;28;20062;-40
2023/04/11 03:12:10;;;;;;;22.90;13.70;;;;;;;8.45;100.00;99607.50;5086389;28;20070;-43
2023/04/11 03:14:36;;;;;;;25.48;14.75;;;;;;;8.55;100.00;99596.41;5086228;28;20024;-41
2023/04/11 03:17:01;;;;;;;29.45;15.52;;;;;;;8.55;100.00;99600.91;5086106;28;20125;-41
2023/04/11 03:19:27;;;;;;;25.85;14.95;;;;;;;8.44;100.00;99583.84;5086291;28;20024;-40
2023/04/11 03:21:52;;;;;;;24.92;15.45;;;;;;;8.48;100.00;99600.13;5085898;28;20107;-40
2023/04/11 03:24:18;;;;;;;25.33;15.18;;;;;;;8.56;100.00;99599.88;5086496;28;20825;-41
2023/04/11 03:26:43;;;;;;;24.33;14.60;;;;;;;8.42;100.00;99600.00;5085814;28;20035;-42
2023/04/11 03:29:09;;;;;;;21.02;13.50;;;;;;;8.41;100.00;99598.34;5085961;28;20112;-40
2023/04/11 03:31:34;;;;;;;23.00;14.45;;;;;;;8.59;100.00;99604.75;5085835;28;20077;-40
2023/04/11 03:34:00;;;;;;;23.40;15.15;;;;;;;8.48;100.00;99600.13;5086121;28;20034;-41
2023/04/11 03:36:25;;;;;;;21.83;14.05;;;;;;;8.49;100.00;99601.78;5086049;28;20397;-40
2023/04/11 03:38:51;;;;;;;21.30;12.90;;;;;;;8.59;100.00;99596.78;5086052;28;20020;-40
2023/04/11 03:41:18;;;;;;;21.95;13.52;;;;;;;8.63;100.00;99597.97;5085829;28;20061;-41
2023/04/11 03:43:44;;;;;;;19.98;13.45;;;;;;;8.53;100.00;99571.09;5086098;28;20028;-40
2023/04/11 03:46:10;;;;;;;20.25;12.65;;;;;;;8.73;100.00;99592.19;5085821;28;20573;-39
2023/04/11 03:48:35;;;;;;;21.25;12.27;;;;;;;8.58;100.00;99601.31;5085938;28;20031;-43
2023/04/11 03:51:01;;;;;;;18.92;11.10;;;;;;;8.52;100.00;99583.56;5086009;28;20040;-41
2023/04/11 03:53:27;;;;;;;15.95;10.02;;;;;;;8.47;100.00;99577.25;5085875;28;20088;-40
2023/04/11 03:55:53;;;;;;;19.52;11.15;;;;;;;8.55;100.00;99584.97;5085667;28;20039;-40
2023/04/11 03:58:19;;;;;;;18.63;10.65;;;;;;;8.40;100.00;99588.72;5085704;28;20028;-41
2023/04/11 04:00:45;;;;;;;17.63;10.73;;;;;;;8.40;100.00;99586.06;5086101;28;20420;-40
2023/04/11 04:03:12;;;;;;;18.58;11.15;;;;;;;8.49;100.00;99591.16;5085973;28;20024;-43
2023/04/11 04:05:39;;;;;;;14.57;9.25;;;;;;;8.23;100.00;99566.38;5085665;28;20028;-40
2023/04/11 04:08:05;;;;;;;15.45;9.57;;;;;;;8.38;100.00;99582.81;5087315;28;20028;-42
2023/04/11 04:10:30;;;;;;;51.65;27.13;;;;;;;8.37;100.00;99567.09;5089515;28;20039;-40
2023/04/11 04:12:55;;;;;;;19.08;11.68;;;;;;;8.45;100.00;99578.28;5089667;28;20051;-39
2023/04/11 04:15:21;;;;;;;18.25;11.68;;;;;;;8.46;100.00;99571.16;5089568;28;20039;-41
2023/04/11 04:17:46;;;;;;;19.33;12.38;;;;;;;8.54;100.00;99568.22;5089860;28;20035;-40
2023/04/11 04:20:12;;;;;;;15.52;9.70;;;;;;;8.64;100.00;99575.66;5089694;28;20060;-43
2023/04/11 04:22:37;;;;;;;16.55;10.13;;;;;;;8.48;100.00;99568.25;5089753;28;20074;-40
2023/04/11 04:25:03;;;;;;;15.18;8.70;;;;;;;8.42;100.00;99570.75;5089343;28;20036;-40
2023/04/11 04:27:29;;;;;;;14.57;8.77;;;;;;;8.28;100.00;99574.50;5104832;28;20024;-40
2023/04/11 04:29:55;;;;;;;14.60;8.05;;;;;;;8.41;100.00;99569.13;5089793;28;20518;-41
2023/04/11 04:32:22;;;;;;;14.65;8.93;;;;;;;8.33;100.00;99560.56;5089013;28;20024;-40
2023/04/11 04:34:54;;;;;;;14.35;8.38;;;;;;;8.44;100.00;99574.00;5089603;28;20039;-39
2023/04/11 04:37:21;;;;;;;13.88;7.25;;;;;;;8.42;100.00;99562.78;5089282;28;20028;-41
2023/04/11 04:39:52;;;;;;;12.23;6.85;;;;;;;8.39;100.00;99560.53;5089405;28;20020;-40
2023/04/11 04:42:22;;;;;;;12.90;7.55;;;;;;;8.43;100.00;99561.75;5089210;28;20059;-40
2023/04/11 04:44:53;;;;;;;11.32;6.38;;;;;;;8.50;100.00;99560.88;5089452;28;20020;-40
2023/04/11 04:47:21;;;;;;;12.68;7.68;;;;;;;8.58;100.00;99552.63;5089115;28;20024;-40
2023/04/11 04:49:46;;;;;;;13.15;8.15;;;;;;;8.71;100.00;99552.50;5089105;28;20032;-40
2023/04/11 04:52:13;;;;;;;11.18;6.75;;;;;;;8.64;100.00;99546.44;5088941;28;20423;-41
2023/04/11 04:54:38;;;;;;;11.82;7.10;;;;;;;8.67;100.00;99539.88;5089150;28;20028;-40
2023/04/11 04:57:05;;;;;;;11.25;6.57;;;;;;;8.65;100.00;99554.19;5088930;28;20028;-40
2023/04/11 04:59:30;;;;;;;14.05;7.93;;;;;;;8.60;100.00;99553.22;5088536;28;20039;-39
2023/04/11 05:01:56;;;;;;;11.40;7.18;;;;;;;8.74;100.00;99552.06;5088800;28;20032;-39
2023/04/11 05:04:22;;;;;;;12.30;7.10;;;;;;;8.74;100.00;99536.13;5088806;28;20042;-38
2023/04/11 05:06:47;;;;;;;11.93;6.95;;;;;;;8.87;100.00;99545.81;5088433;28;20044;-40
2023/04/11 05:09:13;;;;;;;12.57;7.20;;;;;;;8.72;100.00;99538.19;5088739;28;20035;-40
2023/04/11 05:11:39;;;;;;;13.40;7.78;;;;;;;8.91;100.00;99546.16;5088835;28;20028;-42
2023/04/11 05:14:04;;;;;;;13.45;8.65;;;;;;;9.01;100.00;99547.31;5088663;28;20628;-42
2023/04/11 05:16:31;;;;;;;12.75;7.28;;;;;;;8.84;100.00;99520.47;5088699;28;20043;-40
2023/04/11 05:18:56;;;;;;;12.52;7.40;;;;;;;9.08;100.00;99547.22;5087351;28;20064;-41
2023/04/11 05:21:22;;;;;;;11.15;7.00;;;;;;;9.05;100.00;99543.16;5088235;28;20105;-40
2023/04/11 05:23:47;;;;;;;12.02;7.03;;;;;;;9.13;100.00;99533.25;5088681;28;20081;-40
2023/04/11 05:26:13;;;;;;;11.25;7.57;;;;;;;9.08;100.00;99541.91;5087846;28;20483;-42
2023/04/11 05:28:38;;;;;;;11.85;7.35;;;;;;;9.03;100.00;99539.91;5088317;28;20024;-41
2023/04/11 05:31:05;;;;;;;10.77;6.65;;;;;;;9.24;100.00;99537.84;5088100;28;20028;-40
2023/04/11 05:33:30;;;;;;;10.60;6.40;;;;;;;9.20;100.00;99529.50;5088072;28;20573;-41
2023/04/11 05:35:56;;;;;;;11.80;7.72;;;;;;;9.19;100.00;99532.38;5088190;28;20056;-40
2023/04/11 05:38:21;;;;;;;12.82;7.68;;;;;;;9.23;100.00;99534.38;5088044;28;20048;-40
2023/04/11 05:40:46;;;;;;;12.77;7.57;;;;;;;9.24;100.00;99529.88;5087862;28;20028;-41
2023/04/11 05:43:13;;;;;;;12.98;8.05;;;;;;;9.24;100.00;99530.66;5087816;28;20448;-44
2023/04/11 05:45:39;;;;;;;13.57;8.00;;;;;;;9.16;100.00;99530.16;5087834;28;20077;-43
2023/04/11 05:48:09;;;;;;;13.65;8.60;;;;;;;9.25;100.00;99527.00;5087518;28;20032;-40
2023/04/11 05:50:35;;;;;;;13.70;7.68;;;;;;;9.29;100.00;99532.66;5086416;28;20111;-40
2023/04/11 05:53:01;;;;;;;11.73;7.80;;;;;;;9.27;100.00;99541.91;5087711;28;20111;-39
2023/04/11 05:55:26;;;;;;;11.48;7.00;;;;;;;9.35;100.00;99533.63;5087840;28;20088;-40
2023/04/11 05:57:51;;;;;;;12.45;8.75;;;;;;;9.43;100.00;99534.13;5087408;28;20037;-40
2023/04/11 06:00:17;;;;;;;13.50;8.70;;;;;;;9.45;100.00;99523.25;5087662;28;20107;-40
2023/04/11 06:02:43;;;;;;;13.43;7.93;;;;;;;9.46;100.00;99532.88;5087261;28;20027;-41
2023/04/11 06:05:10;;;;;;;13.90;8.18;;;;;;;9.41;100.00;99527.41;5087267;28;20945;-39
2023/04/11 06:07:38;;;;;;;13.07;8.93;;;;;;;9.37;100.00;99518.22;5086944;28;20059;-40
2023/04/11 06:10:07;;;;;;;14.27;9.32;;;;;;;9.52;100.00;99525.81;5087507;28;20020;-39
2023/04/11 06:12:33;;;;;;;14.35;8.18;;;;;;;9.42;100.00;99521.06;5087469;28;20039;-40
2023/04/11 06:14:58;;;;;;;17.02;9.00;;;;;;;9.41;100.00;99519.41;5086867;28;20028;-40
2023/04/11 06:17:24;;;;;;;13.40;8.52;;;;;;;9.54;100.00;99515.75;5087304;28;20024;-40
2023/04/11 06:19:49;;;;;;;13.27;8.68;;;;;;;9.64;100.00;99519.53;5087077;28;20374;-42
2023/04/11 06:22:15;;;;;;;13.65;9.27;;;;;;;9.52;100.00;99505.34;5087210;28;20089;-41
2023/04/11 06:24:41;;;;;;;13.65;8.98;;;;;;;9.59;100.00;99519.38;5087307;28;20059;-41
2023/04/11 06:27:10;;;;;;;17.02;9.90;;;;;;;9.50;100.00;99520.75;5087140;28;20476;-40
2023/04/11 06:29:36;;;;;;;15.20;9.70;;;;;;;9.59;100.00;99511.38;5086944;28;20032;-43
2023/04/11 06:32:02;;;;;;;15.10;9.20;;;;;;;9.64;100.00;99522.19;5085813;28;20111;-41
2023/04/11 06:34:27;;;;;;;16.77;11.13;;;;;;;9.71;100.00;99519.44;5086387;28;20140;-38
2023/04/11 06:36:53;;;;;;;17.80;11.45;;;;;;;9.73;100.00;99516.53;5086802;28;20536;-42
2023/04/11 06:39:19;;;;;;;24.63;15.13;;;;;;;9.84;100.00;99518.41;5086578;28;20028;-41
2023/04/11 06:41:45;;;;;;;18.85;12.38;;;;;;;9.92;100.00;99519.94;5086546;28;20608;-41
2023/04/11 06:44:11;;;;;;;17.65;11.57;;;;;;;9.83;100.00;99508.81;5102238;28;20857;-40
2023/04/11 06:46:36;;;;;;;18.67;11.13;;;;;;;9.91;100.00;99497.84;5086703;28;20507;-41
2023/04/11 06:49:02;;;;;;;19.02;10.52;;;;;;;9.94;100.00;99513.34;5086541;28;20024;-40
2023/04/11 06:51:28;;;;;;;21.52;12.05;;;;;;;9.99;100.00;99513.50;5086626;28;20024;-39
2023/04/11 06:53:54;;;;;;;18.60;11.38;;;;;;;10.11;100.00;99510.81;5086394;28;20032;-39
2023/04/11 06:56:19;;;;;;;15.73;10.23;;;;;;;10.08;100.00;99507.81;5086453;28;20117;-39
2023/04/11 06:58:45;;;;;;;18.35;10.43;;;;;;;10.19;100.00;99520.34;5086212;28;20032;-40
2023/04/11 07:01:11;;;;;;;14.90;9.38;;;;;;;10.12;100.00;99509.00;5085176;28;20020;-38
2023/04/11 07:03:36;;;;;;;19.98;11.20;;;;;;;10.34;100.00;99512.75;5090725;28;20106;-41
2023/04/11 07:06:02;;;;;;;17.00;10.88;;;;;;;10.38;100.00;99518.41;5106393;28;20051;-39
2023/04/11 07:08:27;;;;;;;21.50;12.32;;;;;;;10.50;100.00;99523.75;5106221;28;20032;-41
2023/04/11 07:10:53;;;;;;;20.65;12.35;;;;;;;10.50;100.00;99505.09;5106119;28;20031;-40
2023/04/11 07:13:20;;;;;;;39.83;17.27;;;;;;;10.56;100.00;99512.16;5106467;28;20031;-41
2023/04/11 07:15:45;;;;;;;24.70;13.48;;;;;;;10.53;100.00;99515.31;5106074;28;20031;-40
2023/04/11 07:18:11;;;;;;;19.20;10.65;;;;;;;10.60;100.00;99516.00;5106301;28;20083;-40
2023/04/11 07:20:36;;;;;;;30.95;16.90;;;;;;;10.77;99.65;99506.25;5106282;28;20043;-42
2023/04/11 07:23:02;;;;;;;20.40;11.43;;;;;;;10.76;100.00;99509.16;5106115;28;20365;-43
2023/04/11 07:25:32;;;;;;;12.98;7.93;;;;;;;10.90;100.00;99517.72;5106147;28;20039;-40
2023/04/11 07:27:59;;;;;;;13.52;8.43;;;;;;;11.08;100.00;99501.56;5105587;28;20035;-42
2023/04/11 07:30:25;;;;;;;13.85;8.73;;;;;;;11.36;99.95;99510.63;5106083;28;20020;-42
2023/04/11 07:32:51;;;;;;;13.35;7.80;;;;;;;11.37;96.66;99509.59;5106151;28;20023;-42
2023/04/11 07:35:16;;;;;;;11.98;7.32;;;;;;;11.54;95.72;99510.44;5105973;27;20050;-41
2023/04/11 07:37:41;;;;;;;12.35;7.63;;;;;;;11.55;95.96;99501.41;5105769;28;20134;-40
2023/04/11 07:40:10;;;;;;;13.23;8.13;;;;;;;11.58;98.35;99506.25;5106152;27;20028;-40
2023/04/11 07:42:36;;;;;;;10.63;7.40;;;;;;;11.79;95.62;99490.59;5105813;28;20034;-40
2023/04/11 07:45:01;;;;;;;12.15;7.88;;;;;;;11.72;95.51;99481.94;5105829;28;20035;-42
2023/04/11 07:47:27;;;;;;;10.88;6.80;;;;;;;11.99;92.83;99485.66;5105624;28;20114;-39
2023/04/11 07:49:52;;;;;;;11.60;7.55;;;;;;;11.95;92.70;99492.53;5105550;28;20479;-40
2023/04/11 07:52:17;;;;;;;11.85;7.22;;;;;;;12.18;89.36;99496.09;5105798;28;20032;-38
2023/04/11 07:54:43;;;;;;;12.35;7.93;;;;;;;12.13;90.18;99496.00;5104975;28;20028;-39
2023/04/11 07:57:08;;;;;;;12.23;7.70;;;;;;;11.98;88.44;99500.03;5105588;28;20054;-41
2023/04/11 07:59:34;;;;;;;12.73;8.80;;;;;;;11.91;88.09;99483.38;5105960;28;20068;-41
2023/04/11 08:02:00;;;;;;;12.77;8.50;;;;;;;11.84;87.09;99496.03;5105678;27;20088;-40
2023/04/11 08:04:30;;;;;;;14.68;9.13;;;;;;;11.73;88.45;99480.88;5105779;27;20027;-40
2023/04/11 08:06:56;;;;;;;13.18;8.77;;;;;;;11.90;88.78;99492.44;5105704;28;20654;-40
2023/04/11 08:09:22;;;;;;;12.40;8.38;;;;;;;11.92;87.73;99484.97;5105970;27;20096;-40
2023/04/11 08:11:47;;;;;;;13.45;8.95;;;;;;;11.99;87.93;99490.16;5105384;28;20462;-41
2023/04/11 08:14:12;;;;;;;12.65;8.73;;;;;;;12.09;86.16;99476.16;5105304;28;20022;-40
2023/04/11 08:16:38;;;;;;;13.45;9.65;;;;;;;12.18;87.15;99478.19;5105558;28;20716;-40
2023/04/11 08:19:03;;;;;;;12.68;8.65;;;;;;;12.37;85.76;99480.59;5105589;27;20027;-41
2023/04/11 08:21:30;;;;;;;15.07;9.80;;;;;;;12.49;85.54;99461.78;5105942;27;20478;-40
2023/04/11 08:23:55;;;;;;;13.68;9.30;;;;;;;12.49;82.74;99462.59;5105817;27;20071;-40
2023/04/11 08:26:21;;;;;;;13.40;9.10;;;;;;;12.36;82.34;99442.38;5105678;27;20027;-42
2023/04/11 08:28:46;;;;;;;18.02;10.38;;;;;;;12.63;82.77;99449.69;5105647;27;20031;-41
2023/04/11 08:31:12;;;;;;;17.92;9.95;;;;;;;13.06;84.50;99451.56;5105681;28;20039;-41
2023/04/11 08:33:38;;;;;;;15.10;9.63;;;;;;;12.99;81.49;99444.75;5106028;28;20035;-39
2023/04/11 08:36:08;;;;;;;14.55;8.75;;;;;;;12.80;80.31;99437.06;5105681;27;20616;-40
2023/04/11 08:38:34;;;;;;;14.98;9.77;;;;;;;12.56;80.73;99444.50;5105983;28;20587;-39
2023/04/11 08:40:59;;;;;;;15.38;10.00;;;;;;;12.54;82.79;99443.13;5105991;27;20118;-40
2023/04/11 08:43:25;;;;;;;14.20;9.38;;;;;;;12.24;81.30;99428.28;5105679;28;20026;-42
2023/04/11 08:45:50;;;;;;;20.42;12.35;;;;;;;12.23;81.91;99434.69;5106084;28;20035;-39
2023/04/11 08:48:16;;;;;;;15.63;9.85;;;;;;;12.34;80.73;99433.78;5105602;28;20055;-39
2023/04/11 08:50:43;;;;;;;13.65;9.52;;;;;;;12.24;82.77;99417.59;5105911;28;20122;-39
2023/04/11 08:53:08;;;;;;;14.43;9.68;;;;;;;12.36;85.08;99417.47;5105738;28;20061;-41
2023/04/11 08:55:34;;;;;;;16.30;10.98;;;;;;;12.33;85.05;99426.00;5109305;28;20035;-40
2023/04/11 08:58:01;;;;;;;16.17;10.82;;;;;;;12.42;85.74;99425.34;5108266;28;20559;-40
2023/04/11 09:00:31;;;;;;;14.48;10.43;;;;;;;12.18;85.06;99407.88;5108331;28;20078;-40
2023/04/11 09:03:04;;;;;;;23.63;12.07;;;;;;;11.97;83.27;99426.28;5107856;28;20027;-38
2023/04/11 09:05:31;;;;;;;16.55;10.43;;;;;;;11.92;83.93;99414.72;5107884;28;20026;-40
2023/04/11 09:07:58;;;;;;;15.00;10.02;;;;;;;12.04;83.82;99412.75;5108119;28;20023;-38
2023/04/11 09:10:24;;;;;;;16.52;11.13;;;;;;;12.12;84.30;99400.84;5108147;28;20110;-39
2023/04/11 09:12:50;;;;;;;19.42;12.75;;;;;;;12.31;84.69;99402.19;5107408;28;20035;-40
2023/04/11 09:15:26;;;;;;;16.52;11.65;;;;;;;12.41;82.91;99396.16;5107811;28;20038;-40
2023/04/11 09:17:55;;;;;;;17.35;11.85;;;;;;;12.32;81.58;99394.97;5107808;28;20073;-39
2023/04/11 09:20:25;;;;;;;17.27;10.57;;;;;;;12.52;82.86;99392.56;5107378;28;20012;-40
2023/04/11 09:22:52;;;;;;;16.27;10.40;;;;;;;12.56;80.49;99387.53;5107391;28;20100;-38
2023/04/11 09:25:20;;;;;;;17.52;10.98;;;;;;;12.79;79.28;99392.63;5107565;28;20027;-40
2023/04/11 09:27:46;;;;;;;19.55;13.45;;;;;;;13.01;80.02;99379.22;5107478;28;20034;-38
2023/04/11 09:30:23;;;;;;;17.77;12.77;;;;;;;13.14;79.28;99382.56;5107373;28;20031;-40
2023/04/11 09:32:53;;;;;;;19.27;11.95;;;;;;;13.74;79.94;99386.88;5107400;28;20108;-40
2023/04/11 09:35:24;;;;;;;15.93;10.93;;;;;;;13.65;76.79;99394.59;5105028;28;20016;-39
2023/04/11 09:37:57;;;;;;;23.00;14.13;;;;;;;13.38;74.83;99393.78;5107334;28;20027;-41
2023/04/11 09:40:30;;;;;;;17.17;11.88;;;;;;;13.45;75.26;99384.50;5107250;28;20042;-38
2023/04/11 09:43:00;;;;;;;29.42;19.60;;;;;;;13.64;76.24;99376.88;5105298;28;20051;-38
2023/04/11 09:45:28;;;;;;;17.20;12.77;;;;;;;13.85;75.20;99382.41;5108162;28;20031;-39
2023/04/11 09:47:57;;;;;;;18.15;12.88;;;;;;;14.35;75.73;99370.38;5107662;28;20490;-40
2023/04/11 09:50:23;;;;;;;16.58;11.18;;;;;;;14.04;73.09;99359.50;5106999;28;20031;-40
2023/04/11 09:52:51;;;;;;;18.10;11.40;;;;;;;14.46;73.35;99366.69;5107276;28;20026;-39
2023/04/11 09:55:23;;;;;;;17.63;10.63;;;;;;;14.60;67.55;99355.50;5108117;28;20122;-38
2023/04/11 09:57:51;;;;;;;15.38;10.68;;;;;;;14.82;65.79;99352.63;5108155;28;20042;-37
2023/04/11 10:00:20;;;;;;;14.80;10.10;;;;;;;14.63;65.13;99346.94;5108049;28;20023;-38
2023/04/11 10:02:48;;;;;;;16.45;11.23;;;;;;;14.73;66.41;99340.78;5108100;28;20066;-38
2023/04/11 10:05:16;;;;;;;15.15;11.20;;;;;;;15.01;65.69;99350.25;5107633;28;20038;-40
2023/04/11 10:08:02;;;;;;;;;;;;;;;15.17;61.45;99346.50;5108299;28;20495;-38
2023/04/11 10:10:27;;;;;;;14.55;10.25;;;;;;;15.20;63.84;99343.31;5093155;28;20057;-37
2023/04/11 10:12:53;;;;;;;13.57;10.00;;;;;;;14.76;62.23;99341.06;5107806;28;20126;-39
2023/04/11 10:15:18;;;;;;;12.18;9.18;;;;;;;14.64;60.70;99306.41;5107510;28;20020;-36
2023/04/11 10:18:07;;;;;;;15.20;10.45;;;;;;;14.85;59.67;99326.06;5107541;28;20038;-38
2023/04/11 10:20:44;;;;;;;15.25;10.32;;;;;;;15.13;59.75;99325.84;5107629;28;20024;-39
2023/04/11 10:23:11;;;;;;;13.93;9.52;;;;;;;15.12;56.16;99319.66;5108022;28;20041;-38
2023/04/11 10:25:59;;;;;;;15.23;10.05;;;;;;;15.18;57.76;99315.91;5107451;28;20130;-37
2023/04/11 10:28:31;;;;;;;15.32;10.10;;;;;;;15.77;56.31;99308.38;5107717;28;20500;-39
2023/04/11 10:31:03;;;;;;;12.60;9.68;;;;;;;15.07;56.19;99296.28;5107142;28;20872;-40
2023/04/11 10:33:29;;;;;;;14.40;10.18;;;;;;;15.16;57.31;99303.81;5107656;28;20517;-38
2023/04/11 10:36:11;;;;;;;13.85;9.65;;;;;;;15.41;56.82;99298.44;5107498;28;20023;-38
2023/04/11 10:38:39;;;;;;;14.00;9.23;;;;;;;15.38;55.87;99292.81;5107324;28;20177;-37
2023/04/11 10:41:32;;;;;;;13.80;10.18;;;;;;;15.04;54.02;99296.81;5107670;28;20083;-37
2023/04/11 10:44:16;;;;;;;14.05;10.35;;;;;;;15.64;54.14;99280.16;5107345;28;20416;-38
2023/04/11 10:46:48;;;;;;;12.38;8.75;;;;;;;16.05;54.21;99283.56;5107529;28;20057;-37
2023/04/11 10:49:35;;;;;;;12.85;8.80;;;;;;;16.29;53.30;99272.19;5107248;28;20035;-39
2023/04/11 10:52:16;;;;;;;13.80;9.20;;;;;;;16.48;53.17;99275.84;5107042;28;20507;-38
2023/04/11 10:54:43;;;;;;;13.90;8.57;;;;;;;16.64;48.67;99265.00;5106928;27;20058;-38
2023/04/11 10:57:09;;;;;;;12.43;8.53;;;;;;;16.69;48.62;99270.34;5107015;28;20032;-38
2023/04/11 10:59:34;;;;;;;12.23;7.10;;;;;;;16.11;43.89;99270.13;5106868;28;20390;-39
2023/04/11 11:02:01;;;;;;;13.13;8.38;;;;;;;16.31;49.40;99248.50;5106881;28;20596;-38
2023/04/11 11:04:34;;;;;;;9.27;6.45;;;;;;;16.38;44.16;99259.75;5106321;28;20135;-39
2023/04/11 11:07:02;;;;;;;13.00;7.45;;;;;;;16.51;46.33;99252.16;5106558;28;20071;-39
2023/04/11 11:09:29;;;;;;;9.35;6.50;;;;;;;16.70;47.00;99263.91;5106901;28;20117;-40
2023/04/11 11:12:06;;;;;;;10.18;7.35;;;;;;;17.07;44.72;99257.22;5107241;28;20019;-36
2023/04/11 11:14:33;;;;;;;10.85;6.97;;;;;;;17.07;41.86;99259.91;5106367;28;20043;-38
2023/04/11 11:16:59;;;;;;;11.02;6.50;;;;;;;16.92;43.44;99246.53;5106360;28;20035;-40
2023/04/11 11:19:25;;;;;;;8.38;5.88;;;;;;;16.74;41.93;99256.88;5106303;28;20034;-39
2023/04/11 11:21:51;;;;;;;7.97;5.75;;;;;;;16.68;42.64;99241.84;5106579;28;20034;-38